createdAt,value
2024-04-25T00:01:22.224Z,6.10
2024-04-25T00:03:50.196Z,6.10
2024-04-25T00:06:17.220Z,6.00
2024-04-25T00:08:44.083Z,5.90
2024-04-25T00:11:13.268Z,5.70
2024-04-25T00:13:40.247Z,5.70
2024-04-25T00:16:07.116Z,5.60
2024-04-25T00:18:33.946Z,5.60
2024-04-25T00:21:03.482Z,5.60
2024-04-25T00:23:30.495Z,5.50
2024-04-25T00:26:02.154Z,5.50
2024-04-25T00:28:29.851Z,5.50
2024-04-25T00:30:56.639Z,5.50
2024-04-25T00:33:23.601Z,5.50
2024-04-25T00:35:52.860Z,5.40
2024-04-25T00:38:19.776Z,5.40
2024-04-25T00:40:47.979Z,5.40
2024-04-25T00:43:15.071Z,5.40
2024-04-25T00:45:44.145Z,5.40
2024-04-25T00:48:11.214Z,5.40
2024-04-25T00:50:38.407Z,5.50
2024-04-25T00:53:07.491Z,5.50
2024-04-25T00:55:36.636Z,5.50
2024-04-25T00:58:06.149Z,5.50
2024-04-25T01:00:35.437Z,5.40
2024-04-25T01:03:04.410Z,5.40
2024-04-25T01:05:35.121Z,5.40
2024-04-25T01:08:02.166Z,5.40
2024-04-25T01:10:28.969Z,5.40
2024-04-25T01:12:55.784Z,5.40
2024-04-25T01:15:22.665Z,5.40
2024-04-25T01:17:49.599Z,5.40
2024-04-25T01:20:16.631Z,5.30
2024-04-25T01:22:50.026Z,5.30
2024-04-25T01:25:19.220Z,5.30
2024-04-25T01:27:46.378Z,5.20
2024-04-25T01:30:14.195Z,5.20
2024-04-25T01:32:42.086Z,5.20
2024-04-25T01:35:11.504Z,5.20
2024-04-25T01:37:41.166Z,5.20
2024-04-25T01:40:08.683Z,5.20
2024-04-25T01:42:37.846Z,5.20
2024-04-25T01:45:05.053Z,5.20
2024-04-25T01:47:32.041Z,5.20
2024-04-25T01:50:01.168Z,5.20
2024-04-25T01:52:27.984Z,5.20
2024-04-25T01:54:54.783Z,5.20
2024-04-25T01:57:21.649Z,5.10
2024-04-25T01:59:48.763Z,5.10
2024-04-25T02:02:15.715Z,5.20
2024-04-25T02:04:42.679Z,5.20
2024-04-25T02:07:12.074Z,5.10
2024-04-25T02:09:39.241Z,5.10
2024-04-25T02:12:08.883Z,5.10
2024-04-25T02:14:37.912Z,5.10
2024-04-25T02:17:07.355Z,5.10
2024-04-25T02:19:36.414Z,5.10
2024-04-25T02:22:22.342Z,5.10
2024-04-25T02:25:07.394Z,5.10
2024-04-25T02:27:34.161Z,5.10
2024-04-25T02:30:03.271Z,5.10
2024-04-25T02:32:30.209Z,5.10
2024-04-25T02:34:57.122Z,5.10
2024-04-25T02:37:23.973Z,5.10
2024-04-25T02:39:51.259Z,5.10
2024-04-25T02:42:18.032Z,5.10
2024-04-25T02:44:44.793Z,5.10
2024-04-25T02:47:11.649Z,5.10
2024-04-25T02:49:38.462Z,5.10
2024-04-25T02:52:05.538Z,5.20
2024-04-25T02:54:32.332Z,5.20
2024-04-25T02:57:00.177Z,5.20
2024-04-25T02:59:27.049Z,5.20
2024-04-25T03:01:53.859Z,5.20
2024-04-25T03:04:20.710Z,5.20
2024-04-25T03:06:47.464Z,5.20
2024-04-25T03:09:17.293Z,5.20
2024-04-25T03:11:46.573Z,5.20
2024-04-25T03:14:13.544Z,5.20
2024-04-25T03:16:42.600Z,5.20
2024-04-25T03:19:11.664Z,5.20
2024-04-25T03:21:38.516Z,5.20
2024-04-25T03:24:07.603Z,5.20
2024-04-25T03:26:34.395Z,5.20
2024-04-25T03:29:01.176Z,5.20
2024-04-25T03:31:27.981Z,5.20
2024-04-25T03:33:54.747Z,5.20
2024-04-25T03:36:21.550Z,5.20
2024-04-25T03:38:50.747Z,5.20
2024-04-25T03:41:18.162Z,5.20
2024-04-25T03:43:45.589Z,5.20
2024-04-25T03:46:13.061Z,5.30
2024-04-25T03:48:42.154Z,5.20
2024-04-25T03:51:09.271Z,5.30
2024-04-25T03:53:36.030Z,5.30
2024-04-25T03:56:05.287Z,5.30
2024-04-25T03:58:34.522Z,5.30
2024-04-25T04:01:02.317Z,5.30
2024-04-25T04:03:29.131Z,5.30
2024-04-25T04:05:55.986Z,5.30
2024-04-25T04:08:23.235Z,5.30
2024-04-25T04:10:50.285Z,5.30
2024-04-25T04:13:17.164Z,5.30
2024-04-25T04:15:44.011Z,5.20
2024-04-25T04:18:10.996Z,5.30
2024-04-25T04:20:37.899Z,5.30
2024-04-25T04:23:04.942Z,5.30
2024-04-25T04:25:31.880Z,5.30
2024-04-25T04:27:58.714Z,5.30
2024-04-25T04:30:25.493Z,5.30
2024-04-25T04:32:53.311Z,5.30
2024-04-25T04:35:22.419Z,5.30
2024-04-25T04:37:49.246Z,5.30
2024-04-25T04:40:16.120Z,5.30
2024-04-25T04:42:42.908Z,5.30
2024-04-25T04:45:09.823Z,5.20
2024-04-25T04:47:39.501Z,5.20
2024-04-25T04:50:06.605Z,5.20
2024-04-25T04:52:33.742Z,5.20
2024-04-25T04:55:00.719Z,5.20
2024-04-25T04:57:27.525Z,5.20
2024-04-25T04:59:54.283Z,5.20
2024-04-25T05:02:21.181Z,5.20
2024-04-25T05:04:48.785Z,5.20
2024-04-25T05:07:17.752Z,5.20
2024-04-25T05:09:44.603Z,5.20
2024-04-25T05:12:13.909Z,5.20
2024-04-25T05:14:40.842Z,5.20
2024-04-25T05:17:08.023Z,5.10
2024-04-25T05:19:34.970Z,5.10
2024-04-25T05:22:04.415Z,5.10
2024-04-25T05:24:33.743Z,5.10
2024-04-25T05:27:00.648Z,5.10
2024-04-25T05:29:27.473Z,5.10
2024-04-25T05:31:58.836Z,5.10
2024-04-25T05:34:25.626Z,5.20
2024-04-25T05:36:55.663Z,5.20
2024-04-25T05:39:22.469Z,5.20
2024-04-25T05:41:49.285Z,5.20
2024-04-25T05:44:20.880Z,5.20
2024-04-25T05:46:47.768Z,5.20
2024-04-25T05:49:14.747Z,5.30
2024-04-25T05:51:41.514Z,5.30
2024-04-25T05:54:08.470Z,5.30
2024-04-25T05:56:35.318Z,5.30
2024-04-25T05:59:02.143Z,5.40
2024-04-25T06:01:31.073Z,5.40
2024-04-25T06:03:57.976Z,5.40
2024-04-25T06:06:28.329Z,5.40
2024-04-25T06:08:55.270Z,5.50
2024-04-25T06:11:24.143Z,5.60
2024-04-25T06:13:51.444Z,5.50
2024-04-25T06:16:20.572Z,5.60
2024-04-25T06:18:47.619Z,5.60
2024-04-25T06:21:16.929Z,5.60
2024-04-25T06:23:44.303Z,5.60
2024-04-25T06:26:11.312Z,5.70
2024-04-25T06:28:39.907Z,5.70
2024-04-25T06:31:07.253Z,5.70
2024-04-25T06:33:34.556Z,5.70
2024-04-25T06:36:01.431Z,5.80
2024-04-25T06:38:28.586Z,5.80
2024-04-25T06:40:55.497Z,5.80
2024-04-25T06:43:22.320Z,5.80
2024-04-25T06:45:49.176Z,5.90
2024-04-25T06:48:16.191Z,5.80
2024-04-25T06:50:45.567Z,5.80
2024-04-25T06:53:13.693Z,5.80
2024-04-25T06:55:40.615Z,5.90
2024-04-25T06:58:07.883Z,5.90
2024-04-25T07:00:34.796Z,5.90
2024-04-25T07:03:04.083Z,5.90
2024-04-25T07:05:33.218Z,6.00
2024-04-25T07:08:00.128Z,6.00
2024-04-25T07:10:27.121Z,6.00
2024-04-25T07:12:54.460Z,6.00
2024-04-25T07:15:25.459Z,6.10
2024-04-25T07:17:57.720Z,6.10
2024-04-25T07:20:26.967Z,6.10
2024-04-25T07:22:53.765Z,6.10
2024-04-25T07:25:20.804Z,6.10
2024-04-25T07:27:47.677Z,6.10
2024-04-25T07:30:19.767Z,6.10
2024-04-25T07:32:47.026Z,6.20
2024-04-25T07:35:15.598Z,6.30
2024-04-25T07:37:42.788Z,6.30
2024-04-25T07:40:11.987Z,6.30
2024-04-25T07:42:38.877Z,6.30
2024-04-25T07:45:06.509Z,6.30
2024-04-25T07:47:35.854Z,6.30
2024-04-25T07:50:04.903Z,6.30
2024-04-25T07:52:31.765Z,6.30
2024-04-25T07:54:58.577Z,6.30
2024-04-25T07:57:25.372Z,6.30
2024-04-25T07:59:56.584Z,6.40
2024-04-25T08:02:23.726Z,6.50
2024-04-25T08:04:50.888Z,6.50
2024-04-25T08:07:17.792Z,6.50
2024-04-25T08:09:44.698Z,6.60
2024-04-25T08:12:11.618Z,6.60
2024-04-25T08:14:41.708Z,6.60
2024-04-25T08:17:08.835Z,6.70
2024-04-25T08:19:37.940Z,6.70
2024-04-25T08:22:06.736Z,6.70
2024-04-25T08:24:33.689Z,6.70
2024-04-25T08:27:00.779Z,6.80
2024-04-25T08:29:28.086Z,6.80
2024-04-25T08:31:56.093Z,6.90
2024-04-25T08:34:23.498Z,7.00
2024-04-25T08:36:50.618Z,7.10
2024-04-25T08:39:19.672Z,7.10
2024-04-25T08:41:49.480Z,7.20
2024-04-25T08:44:18.603Z,7.10
2024-04-25T08:46:48.632Z,7.20
2024-04-25T08:49:17.752Z,7.20
2024-04-25T08:51:46.172Z,7.30
2024-04-25T08:54:17.097Z,7.40
2024-04-25T08:56:44.037Z,7.30
2024-04-25T08:59:11.179Z,7.40
2024-04-25T09:01:41.199Z,7.50
2024-04-25T09:04:15.723Z,7.60
2024-04-25T09:06:43.534Z,7.60
2024-04-25T09:09:11.470Z,7.60
2024-04-25T09:11:41.278Z,7.60
2024-04-25T09:14:11.205Z,7.60
2024-04-25T09:16:38.272Z,7.60
2024-04-25T09:19:08.437Z,7.70
2024-04-25T09:21:37.406Z,7.90
2024-04-25T09:24:04.511Z,8.00
2024-04-25T09:26:32.094Z,8.10
2024-04-25T09:29:00.549Z,8.10
2024-04-25T09:31:28.498Z,8.20
2024-04-25T09:33:57.786Z,8.30
2024-04-25T09:36:25.212Z,8.30
2024-04-25T09:38:53.112Z,8.30
2024-04-25T09:41:23.396Z,8.30
2024-04-25T09:43:51.468Z,8.30
2024-04-25T09:46:29.781Z,8.40
2024-04-25T09:49:00.838Z,8.60
2024-04-25T09:51:37.501Z,8.80
2024-04-25T09:54:15.745Z,8.90
2024-04-25T09:56:45.017Z,9.00
2024-04-25T09:59:54.277Z,9.10
2024-04-25T10:02:22.691Z,9.00
2024-04-25T10:04:53.321Z,9.00
2024-04-25T10:07:21.422Z,9.00
2024-04-25T10:09:51.951Z,9.10
2024-04-25T10:12:23.784Z,9.00
2024-04-25T10:15:01.693Z,8.90
2024-04-25T10:17:33.290Z,8.90
2024-04-25T10:20:01.865Z,8.90
2024-04-25T10:22:30.668Z,9.00
2024-04-25T10:25:04.961Z,9.10
2024-04-25T10:27:33.172Z,9.10
2024-04-25T10:30:07.991Z,9.20
2024-04-25T10:32:35.329Z,9.30
2024-04-25T10:35:05.011Z,9.40
2024-04-25T10:37:40.569Z,9.50
2024-04-25T10:40:15.193Z,9.80
2024-04-25T10:42:42.496Z,10.20
2024-04-25T10:45:09.467Z,10.40
2024-04-25T10:47:36.808Z,10.30
2024-04-25T10:50:04.022Z,10.20
2024-04-25T10:52:33.470Z,10.20
2024-04-25T10:55:00.429Z,10.30
2024-04-25T10:57:31.353Z,10.20
2024-04-25T10:59:58.727Z,10.30
2024-04-25T11:02:35.191Z,10.30
2024-04-25T11:05:02.164Z,10.30
2024-04-25T11:07:29.361Z,10.30
2024-04-25T11:09:56.944Z,10.30
2024-04-25T11:12:26.617Z,10.60
2024-04-25T11:14:53.507Z,10.60
2024-04-25T11:17:22.781Z,10.60
2024-04-25T11:19:50.685Z,10.50
2024-04-25T11:24:50.681Z,10.20
2024-04-25T11:27:17.726Z,10.40
2024-04-25T11:29:44.760Z,10.40
2024-04-25T11:32:17.945Z,10.30
2024-04-25T11:34:44.930Z,10.30
2024-04-25T11:37:11.867Z,10.20
2024-04-25T11:39:40.480Z,10.20
2024-04-25T11:42:09.864Z,10.20
2024-04-25T11:44:39.117Z,9.90
2024-04-25T11:47:06.900Z,9.60
2024-04-25T11:49:34.696Z,9.60
2024-04-25T11:52:01.959Z,9.60
2024-04-25T11:54:29.066Z,9.60
2024-04-25T11:56:56.450Z,9.70
2024-04-25T11:59:23.530Z,9.70
2024-04-25T12:01:53.979Z,9.60
2024-04-25T12:04:22.111Z,9.60
2024-04-25T12:06:49.056Z,9.60
2024-04-25T12:09:15.903Z,9.50
2024-04-25T12:11:47.891Z,9.50
2024-04-25T12:14:17.556Z,9.40
2024-04-25T12:16:44.559Z,9.40
2024-04-25T12:19:11.842Z,9.30
2024-04-25T12:21:39.170Z,9.30
2024-04-25T12:24:06.727Z,9.40
2024-04-25T12:26:36.421Z,9.50
2024-04-25T12:29:03.684Z,9.50
2024-04-25T12:31:33.304Z,9.60
2024-04-25T12:34:01.444Z,9.90
2024-04-25T12:36:28.635Z,10.30
2024-04-25T12:38:56.036Z,10.70
2024-04-25T12:41:23.459Z,11.10
2024-04-25T12:43:50.995Z,11.50
2024-04-25T12:46:20.005Z,11.70
2024-04-25T12:48:47.114Z,11.60
2024-04-25T12:51:14.074Z,11.30
2024-04-25T12:53:41.653Z,10.80
2024-04-25T12:56:08.998Z,10.70
2024-04-25T12:58:41.856Z,10.80
2024-04-25T13:01:11.934Z,10.80
2024-04-25T13:03:39.072Z,10.70
2024-04-25T13:06:09.647Z,10.50
2024-04-25T13:08:37.968Z,10.10
2024-04-25T13:11:07.591Z,10.00
2024-04-25T13:13:34.872Z,9.90
2024-04-25T13:16:01.702Z,9.80
2024-04-25T13:18:29.538Z,9.70
2024-04-25T13:21:02.628Z,9.50
2024-04-25T13:23:33.042Z,9.50
2024-04-25T13:26:00.360Z,9.50
2024-04-25T13:28:27.849Z,9.40
2024-04-25T13:30:54.776Z,9.30
2024-04-25T13:33:25.017Z,9.20
2024-04-25T13:35:52.418Z,9.20
2024-04-25T13:38:19.623Z,9.30
2024-04-25T13:40:46.746Z,9.30
2024-04-25T13:43:15.404Z,9.40
2024-04-25T13:45:42.372Z,9.50
2024-04-25T13:48:09.678Z,9.50
2024-04-25T13:50:36.744Z,9.50
2024-04-25T13:53:06.244Z,9.60
2024-04-25T13:55:35.859Z,9.70
2024-04-25T13:58:04.047Z,9.70
2024-04-25T14:00:31.484Z,9.70
2024-04-25T14:02:58.477Z,9.70
2024-04-25T14:05:25.620Z,9.70
2024-04-25T14:07:55.235Z,9.80
2024-04-25T14:10:22.419Z,9.70
2024-04-25T14:12:50.736Z,9.80
2024-04-25T14:15:17.799Z,9.90
2024-04-25T14:17:45.217Z,9.90
2024-04-25T14:20:12.691Z,10.00
2024-04-25T14:22:42.521Z,9.90
2024-04-25T14:25:28.187Z,9.90
2024-04-25T14:28:13.653Z,9.70
2024-04-25T14:30:40.636Z,9.60
2024-04-25T14:33:07.801Z,9.70
2024-04-25T14:35:34.941Z,9.80
2024-04-25T14:38:02.017Z,9.90
2024-04-25T14:40:31.767Z,9.80
2024-04-25T14:43:01.877Z,9.70
2024-04-25T14:45:28.891Z,9.60
2024-04-25T14:47:58.228Z,9.60
2024-04-25T14:50:25.251Z,9.70
2024-04-25T14:52:52.189Z,9.70
2024-04-25T14:55:19.027Z,9.80
2024-04-25T14:57:45.976Z,9.80
2024-04-25T15:00:14.119Z,9.80
2024-04-25T15:02:41.144Z,9.90
2024-04-25T15:05:08.812Z,10.00
2024-04-25T15:07:36.208Z,10.10
2024-04-25T15:10:08.472Z,10.20
2024-04-25T15:12:40.567Z,10.30
2024-04-25T15:15:12.518Z,10.50
2024-04-25T15:17:50.062Z,10.60
2024-04-25T15:20:17.623Z,10.80
2024-04-25T15:22:45.162Z,10.90
2024-04-25T15:25:12.280Z,11.20
2024-04-25T15:27:41.344Z,11.50
2024-04-25T15:30:08.776Z,11.70
2024-04-25T15:32:35.969Z,11.40
2024-04-25T15:35:04.018Z,11.30
2024-04-25T15:37:33.769Z,11.30
2024-04-25T15:40:03.183Z,11.30
2024-04-25T15:42:30.105Z,11.30
2024-04-25T15:44:57.014Z,11.10
2024-04-25T15:47:24.121Z,10.90
2024-04-25T15:49:53.249Z,10.80
2024-04-25T15:52:20.179Z,10.70
2024-04-25T15:54:50.178Z,10.60
2024-04-25T15:57:17.244Z,10.50
2024-04-25T15:59:44.529Z,10.50
2024-04-25T16:02:11.569Z,10.50
2024-04-25T16:04:41.495Z,10.40
2024-04-25T16:07:08.942Z,10.40
2024-04-25T16:09:36.285Z,10.40
2024-04-25T16:12:04.003Z,10.30
2024-04-25T16:14:31.041Z,10.20
2024-04-25T16:16:59.029Z,10.10
2024-04-25T16:19:30.062Z,10.00
2024-04-25T16:22:01.345Z,10.00
2024-04-25T16:24:29.623Z,10.00
2024-04-25T16:26:59.190Z,9.90
2024-04-25T16:29:30.690Z,9.90
2024-04-25T16:31:57.782Z,10.00
2024-04-25T16:34:25.193Z,10.10
2024-04-25T16:36:52.390Z,10.20
2024-04-25T16:39:19.390Z,10.30
2024-04-25T16:41:46.463Z,10.50
2024-04-25T16:44:13.765Z,10.80
2024-04-25T16:46:41.505Z,11.30
2024-04-25T16:49:08.493Z,11.40
2024-04-25T16:51:35.348Z,11.40
2024-04-25T16:54:02.213Z,11.40
2024-04-25T16:56:33.701Z,11.20
2024-04-25T16:59:00.580Z,11.10
2024-04-25T17:01:27.607Z,11.00
2024-04-25T17:03:54.535Z,11.00
2024-04-25T17:06:21.887Z,11.00
2024-04-25T17:08:49.596Z,10.90
2024-04-25T17:11:23.193Z,10.90
2024-04-25T17:13:56.211Z,10.80
2024-04-25T17:16:23.155Z,10.70
2024-04-25T17:18:56.047Z,10.60
2024-04-25T17:21:24.964Z,10.50
2024-04-25T17:23:56.290Z,10.50
2024-04-25T17:26:24.151Z,10.50
2024-04-25T17:28:52.591Z,10.50
2024-04-25T17:31:19.714Z,10.40
2024-04-25T17:33:49.341Z,10.40
2024-04-25T17:36:19.840Z,10.40
2024-04-25T17:38:46.915Z,10.40
2024-04-25T17:41:14.135Z,10.40
2024-04-25T17:43:40.993Z,10.40
2024-04-25T17:46:09.551Z,10.40
2024-04-25T17:48:36.784Z,10.30
2024-04-25T17:51:03.893Z,10.20
2024-04-25T17:53:30.912Z,10.20
2024-04-25T17:55:57.759Z,10.10
2024-04-25T17:58:24.900Z,10.00
2024-04-25T18:00:53.135Z,9.90
2024-04-25T18:03:20.098Z,9.90
2024-04-25T18:05:47.185Z,9.70
2024-04-25T18:08:14.329Z,9.60
2024-04-25T18:10:43.354Z,9.60
2024-04-25T18:13:13.054Z,9.50
2024-04-25T18:15:44.647Z,9.50
2024-04-25T18:18:11.579Z,9.30
2024-04-25T18:20:39.389Z,9.20
2024-04-25T18:23:06.846Z,9.10
2024-04-25T18:25:33.989Z,9.10
2024-04-25T18:28:01.293Z,9.00
2024-04-25T18:30:28.648Z,8.90
2024-04-25T18:32:56.040Z,8.80
2024-04-25T18:35:23.499Z,8.80
2024-04-25T18:37:50.390Z,8.70
2024-04-25T18:40:17.307Z,8.60
2024-04-25T18:42:44.165Z,8.50
2024-04-25T18:45:11.318Z,8.50
2024-04-25T18:47:40.642Z,8.40
2024-04-25T18:50:07.864Z,8.30
2024-04-25T18:52:37.452Z,8.20
2024-04-25T18:55:07.099Z,8.10
2024-04-25T18:57:34.048Z,8.00
2024-04-25T19:00:01.047Z,7.80
2024-04-25T19:02:29.922Z,7.80
2024-04-25T19:04:56.936Z,7.70
2024-04-25T19:07:23.939Z,7.70
2024-04-25T19:09:52.731Z,7.70
2024-04-25T19:12:20.884Z,7.60
2024-04-25T19:14:48.739Z,7.60
2024-04-25T19:17:15.863Z,7.50
2024-04-25T19:19:48.900Z,7.50
2024-04-25T19:22:17.101Z,7.40
2024-04-25T19:24:48.386Z,7.40
2024-04-25T19:27:15.994Z,7.40
2024-04-25T19:29:42.868Z,7.30
2024-04-25T19:32:12.338Z,7.30
2024-04-25T19:34:41.891Z,7.30
2024-04-25T19:37:10.889Z,7.20
2024-04-25T19:39:39.870Z,7.10
2024-04-25T19:42:08.309Z,7.10
2024-04-25T19:44:35.191Z,7.10
2024-04-25T19:47:02.419Z,7.00
2024-04-25T19:49:29.390Z,7.00
2024-04-25T19:51:59.434Z,6.90
2024-04-25T19:54:26.526Z,6.90
2024-04-25T19:56:55.415Z,6.90
2024-04-25T19:59:22.414Z,6.80
2024-04-25T20:01:52.523Z,6.80
2024-04-25T20:04:21.750Z,6.70
2024-04-25T20:06:50.548Z,6.70
2024-04-25T20:09:19.185Z,6.70
2024-04-25T20:11:46.861Z,6.60
2024-04-25T20:14:14.057Z,6.60
2024-04-25T20:16:41.313Z,6.60
2024-04-25T20:19:27.506Z,6.50
2024-04-25T20:21:57.748Z,6.50
2024-04-25T20:24:26.714Z,6.50
2024-04-25T20:26:56.387Z,6.50
2024-04-25T20:29:25.562Z,6.40
2024-04-25T20:31:55.661Z,6.40
2024-04-25T20:34:23.784Z,6.30
2024-04-25T20:36:50.734Z,6.30
2024-04-25T20:39:17.538Z,6.30
2024-04-25T20:41:45.208Z,6.30
2024-04-25T20:44:14.970Z,6.40
2024-04-25T20:46:42.010Z,6.30
2024-04-25T20:49:09.128Z,6.40
2024-04-25T20:51:41.775Z,6.40
2024-04-25T20:54:10.456Z,6.30
2024-04-25T20:56:42.037Z,6.40
2024-04-25T20:59:09.318Z,6.30
2024-04-25T21:01:38.259Z,6.30
2024-04-25T21:04:05.489Z,6.30
2024-04-25T21:06:32.654Z,6.20
2024-04-25T21:08:59.553Z,6.20
2024-04-25T21:11:29.521Z,6.20
2024-04-25T21:13:58.971Z,6.20
2024-04-25T21:16:35.210Z,6.20
2024-04-25T21:19:02.106Z,6.10
2024-04-25T21:21:28.956Z,6.00
2024-04-25T21:23:58.066Z,6.10
2024-04-25T21:26:25.012Z,6.00
2024-04-25T21:28:51.960Z,5.90
2024-04-25T21:31:21.019Z,5.90
2024-04-25T21:33:49.514Z,5.80
2024-04-25T21:36:16.564Z,5.80
2024-04-25T21:38:46.050Z,5.70
2024-04-25T21:41:12.969Z,5.70
2024-04-25T21:43:42.928Z,5.60
2024-04-25T21:46:09.827Z,5.60
2024-04-25T21:48:36.698Z,5.50
2024-04-25T21:51:06.201Z,5.40
2024-04-25T21:53:32.974Z,5.40
2024-04-25T21:55:59.868Z,5.40
2024-04-25T21:58:26.781Z,5.30
2024-04-25T22:00:53.695Z,5.30
2024-04-25T22:03:20.594Z,5.20
2024-04-25T22:05:49.565Z,5.20
2024-04-25T22:08:19.214Z,5.10
2024-04-25T22:10:46.087Z,5.10
2024-04-25T22:13:13.252Z,5.00
2024-04-25T22:15:40.089Z,4.90
2024-04-25T22:18:07.926Z,4.90
2024-04-25T22:20:34.953Z,4.80
2024-04-25T22:23:01.752Z,4.80
2024-04-25T22:25:30.752Z,4.80
2024-04-25T22:27:57.667Z,4.80
2024-04-25T22:30:26.861Z,4.70
2024-04-25T22:32:53.885Z,4.80
2024-04-25T22:35:21.076Z,4.80
2024-04-25T22:37:47.954Z,4.70
2024-04-25T22:40:14.847Z,4.70
2024-04-25T22:42:42.027Z,4.60
2024-04-25T22:45:11.563Z,4.60
2024-04-25T22:47:40.032Z,4.60
2024-04-25T22:50:07.157Z,4.50
2024-04-25T22:52:33.970Z,4.50
2024-04-25T22:55:00.878Z,4.50
2024-04-25T22:57:27.715Z,4.50
2024-04-25T22:59:54.675Z,4.40
2024-04-25T23:02:23.744Z,4.50
2024-04-25T23:04:52.821Z,4.40
2024-04-25T23:07:19.652Z,4.50
2024-04-25T23:09:46.509Z,4.40
2024-04-25T23:12:13.432Z,4.40
2024-04-25T23:14:44.065Z,4.30
2024-04-25T23:17:13.025Z,4.30
2024-04-25T23:19:39.835Z,4.30
2024-04-25T23:22:06.720Z,4.20
2024-04-25T23:24:34.187Z,4.20
2024-04-25T23:27:05.701Z,4.20
2024-04-25T23:29:32.609Z,4.20
2024-04-25T23:31:59.410Z,4.20
2024-04-25T23:34:26.235Z,4.30
2024-04-25T23:36:53.080Z,4.30
2024-04-25T23:39:22.442Z,4.30
2024-04-25T23:41:49.431Z,4.30
2024-04-25T23:44:16.338Z,4.40
2024-04-25T23:46:45.632Z,4.40
2024-04-25T23:49:12.503Z,4.40
2024-04-25T23:51:41.501Z,4.40
2024-04-25T23:54:10.823Z,4.40
2024-04-25T23:56:37.655Z,4.40
2024-04-25T23:59:04.907Z,4.50
